Amber Lagoon — V7FS4 — position and weather

sailwx.info

Track history (hours):
 
Tides and Currents Weather Stations Pressure Air Temp Water Temp Dewpoint Dewpoint Depression Visibility Wind Speed Wind Dir Waves Ship Positions

Amber Lagoon

Last reported at 2014-Aug-23 03:30 UTC. Time now 2014-Aug-23 03:39 UTC.
Position N 29°55' W 090°05'.

Length 192 m; draft 9.9 m.

Type: Cargo ship. MMSI: 538090116.

Date/timePositionNaut miles runAvg speedWind from/ knotsBaromVisibWave heightAir tempDewpointWater temp
2014-Aug-23 03:30N 29°55' W 090°05'0 0.0
2014-Aug-22 12:30N 29°55' W 090°05'0 0.0
2014-Aug-22 11:24N 29°55' W 090°05'0 0.0
2014-Aug-22 10:30N 29°55' W 090°05'0 0.0
2014-Aug-22 09:30N 29°55' W 090°05'0 0.0
2014-Aug-22 08:30N 29°55' W 090°05'0 0.0
2014-Aug-22 07:30N 29°55' W 090°05'0 0.0
2014-Aug-22 05:33N 29°55' W 090°05'0 0.0
2014-Aug-22 04:30N 29°55' W 090°05'0 0.0
2014-Aug-22 02:30N 29°55' W 090°05'0 0.0
2014-Aug-21 23:29N 29°55' W 090°05'0 0.0
2014-Aug-21 12:11N 29°55' W 090°05'0 0.0
2014-Aug-21 11:05N 29°55' W 090°05'0 0.0
2014-Aug-21 10:17N 29°55' W 090°05'0 0.0
2014-Aug-21 09:33N 29°55' W 090°05'0 0.0
2014-Aug-21 08:33N 29°55' W 090°05'  
2014-Aug-18 20:22N 29°21' W 094°45'1113.2
2014-Aug-18 19:34N 29°30' W 094°52'1211.9
2014-Aug-18 18:34N 29°40' W 094°59'8 8.0
2014-Aug-18 17:34N 29°45' W 095°06'1 0.9
2014-Aug-18 16:32N 29°45' W 095°07'0 0.0
2014-Aug-18 15:32N 29°45' W 095°07'0 0.0
2014-Aug-18 14:32N 29°45' W 095°07'0 0.0
2014-Aug-18 13:32N 29°45' W 095°07'0 0.0
2014-Aug-18 12:32N 29°45' W 095°07'0 0.0
2014-Aug-18 11:32N 29°45' W 095°07'0 0.0
2014-Aug-18 10:32N 29°45' W 095°07'0 0.0
2014-Aug-18 09:32N 29°45' W 095°07'0 0.0
2014-Aug-18 08:32N 29°45' W 095°07'0 0.0
2014-Aug-18 07:32N 29°45' W 095°07'0 0.0
2014-Aug-18 06:32N 29°45' W 095°07'0 0.0
2014-Aug-18 05:32N 29°45' W 095°07'0 0.0
2014-Aug-18 04:32N 29°45' W 095°07'0 0.0
2014-Aug-18 03:32N 29°45' W 095°07'0 0.0
2014-Aug-18 02:32N 29°45' W 095°07'0 0.0
2014-Aug-18 01:32N 29°45' W 095°07'0 0.0
2014-Aug-18 00:32N 29°45' W 095°07'0 0.0
2014-Aug-17 18:32N 29°45' W 095°07'0 0.0
2014-Aug-17 17:29N 29°45' W 095°07'0 0.0
2014-Aug-17 16:32N 29°45' W 095°07'0 0.0
2014-Aug-17 15:32N 29°45' W 095°07'0 0.0
2014-Aug-17 14:33N 29°45' W 095°07'0 0.0
2014-Aug-17 13:33N 29°45' W 095°07'0 0.0
2014-Aug-17 12:33N 29°45' W 095°07'0 0.0
2014-Aug-17 11:33N 29°45' W 095°07'0 0.0
2014-Aug-17 10:33N 29°45' W 095°07'0 0.0
2014-Aug-17 09:33N 29°45' W 095°07'0 0.0
2014-Aug-17 08:33N 29°45' W 095°07'0 0.0
2014-Aug-17 07:33N 29°45' W 095°07'0 0.0
2014-Aug-17 06:33N 29°45' W 095°07'0 0.0
2014-Aug-17 05:33N 29°45' W 095°07'0 0.0
2014-Aug-17 04:33N 29°45' W 095°07'0 0.0
2014-Aug-17 03:33N 29°45' W 095°07'0 0.0
2014-Aug-17 02:33N 29°45' W 095°07'0 0.0
2014-Aug-17 01:33N 29°45' W 095°07'0 0.0
2014-Aug-17 00:33N 29°45' W 095°07'2 2.3
2014-Aug-16 23:33N 29°45' W 095°04'9 8.8
2014-Aug-16 22:33N 29°38' W 094°58'1211.6
2014-Aug-16 21:33N 29°28' W 094°51'1010.2
2014-Aug-16 20:32N 29°21' W 094°43'  
Track history (hours):
 
Tides and Currents Weather Stations Pressure Air Temp Water Temp Dewpoint Dewpoint Depression Visibility Wind Speed Wind Dir Waves Ship Positions

Amber Lagoon

Last reported at 2014-Aug-23 03:30 UTC. Time now 2014-Aug-23 03:39 UTC.
Position N 29°55' W 090°05'.

Length 192 m; draft 9.9 m.

Type: Cargo ship. MMSI: 538090116.

Date/timePositionNaut miles runAvg speedWind from/ knotsBaromVisibWave heightAir tempDewpointWater temp
2014-Aug-23 03:30N 29°55' W 090°05'0 0.0
2014-Aug-22 12:30N 29°55' W 090°05'0 0.0
2014-Aug-22 11:24N 29°55' W 090°05'0 0.0
2014-Aug-22 10:30N 29°55' W 090°05'0 0.0
2014-Aug-22 09:30N 29°55' W 090°05'0 0.0
2014-Aug-22 08:30N 29°55' W 090°05'0 0.0
2014-Aug-22 07:30N 29°55' W 090°05'0 0.0
2014-Aug-22 05:33N 29°55' W 090°05'0 0.0
2014-Aug-22 04:30N 29°55' W 090°05'0 0.0
2014-Aug-22 02:30N 29°55' W 090°05'0 0.0
2014-Aug-21 23:29N 29°55' W 090°05'0 0.0
2014-Aug-21 12:11N 29°55' W 090°05'0 0.0
2014-Aug-21 11:05N 29°55' W 090°05'0 0.0
2014-Aug-21 10:17N 29°55' W 090°05'0 0.0
2014-Aug-21 09:33N 29°55' W 090°05'0 0.0
2014-Aug-21 08:33N 29°55' W 090°05'  
2014-Aug-18 20:22N 29°21' W 094°45'1113.2
2014-Aug-18 19:34N 29°30' W 094°52'1211.9
2014-Aug-18 18:34N 29°40' W 094°59'8 8.0
2014-Aug-18 17:34N 29°45' W 095°06'1 0.9
2014-Aug-18 16:32N 29°45' W 095°07'0 0.0
2014-Aug-18 15:32N 29°45' W 095°07'0 0.0
2014-Aug-18 14:32N 29°45' W 095°07'0 0.0
2014-Aug-18 13:32N 29°45' W 095°07'0 0.0
2014-Aug-18 12:32N 29°45' W 095°07'0 0.0
2014-Aug-18 11:32N 29°45' W 095°07'0 0.0
2014-Aug-18 10:32N 29°45' W 095°07'0 0.0
2014-Aug-18 09:32N 29°45' W 095°07'0 0.0
2014-Aug-18 08:32N 29°45' W 095°07'0 0.0
2014-Aug-18 07:32N 29°45' W 095°07'0 0.0
2014-Aug-18 06:32N 29°45' W 095°07'0 0.0
2014-Aug-18 05:32N 29°45' W 095°07'0 0.0
2014-Aug-18 04:32N 29°45' W 095°07'0 0.0
2014-Aug-18 03:32N 29°45' W 095°07'0 0.0
2014-Aug-18 02:32N 29°45' W 095°07'0 0.0
2014-Aug-18 01:32N 29°45' W 095°07'0 0.0
2014-Aug-18 00:32N 29°45' W 095°07'0 0.0
2014-Aug-17 18:32N 29°45' W 095°07'0 0.0
2014-Aug-17 17:29N 29°45' W 095°07'0 0.0
2014-Aug-17 16:32N 29°45' W 095°07'0 0.0
2014-Aug-17 15:32N 29°45' W 095°07'0 0.0
2014-Aug-17 14:33N 29°45' W 095°07'0 0.0
2014-Aug-17 13:33N 29°45' W 095°07'0 0.0
2014-Aug-17 12:33N 29°45' W 095°07'0 0.0
2014-Aug-17 11:33N 29°45' W 095°07'0 0.0
2014-Aug-17 10:33N 29°45' W 095°07'0 0.0
2014-Aug-17 09:33N 29°45' W 095°07'0 0.0
2014-Aug-17 08:33N 29°45' W 095°07'0 0.0
2014-Aug-17 07:33N 29°45' W 095°07'0 0.0
2014-Aug-17 06:33N 29°45' W 095°07'0 0.0
2014-Aug-17 05:33N 29°45' W 095°07'0 0.0
2014-Aug-17 04:33N 29°45' W 095°07'0 0.0
2014-Aug-17 03:33N 29°45' W 095°07'0 0.0
2014-Aug-17 02:33N 29°45' W 095°07'0 0.0
2014-Aug-17 01:33N 29°45' W 095°07'0 0.0
2014-Aug-17 00:33N 29°45' W 095°07'2 2.3
2014-Aug-16 23:33N 29°45' W 095°04'9 8.8
2014-Aug-16 22:33N 29°38' W 094°58'1211.6
2014-Aug-16 21:33N 29°28' W 094°51'1010.2
2014-Aug-16 20:32N 29°21' W 094°43'  

Dump ship's entire track history